Anthony, Kansas
Current Conditions -  °F | °C
As of 10:55 AM on Tuesday 27 Jan 2015 (Local Time) from KAVK Reporting Station
Clear Clear  
Wind Chill: 57°   Ceiling: Unl
Heat Index: 57°   Visibility: 10mi
Dew Point: 36°   Wind: 7mph
Humidity: 44%   Direction: 210°SSW
Pressure: 30.16"   Gusts: NA
Location:  37.15°N, 98.03°W
Report Text: KAVK 271655Z AUTO 21006KT 10SM CLR 14/02 A3016 RMK AO2
Loading
Personal Weather Stations






























Interactive Weather Map New forecast layout! Learn more

10-Day Weather Forecast

Advertisements
Track Severe Weather on mobile